Time;durP1;ratioP1;P1;durP2;ratioP2;P2;SDS_P1;SDS_P2;PMS_P1;PMS_P2;Temp;Humidity;BMP_temperature;BMP_pressure;BME280_temperature;BME280_humidity;BME280_pressure;Samples;Min_cycle;Max_cycle;Signal;HPM_P1;HPM_P2
2021/08/18 00:01:32;;;;;;;4.30;2.45;;;15.80;92.80;;;;;;4970016;28;20648;-77
2021/08/18 00:04:00;;;;;;;4.47;2.40;;;15.80;92.80;;;;;;4971713;28;20054;-77
2021/08/18 00:06:27;;;;;;;3.63;2.15;;;15.80;92.80;;;;;;4972962;28;20439;-76
2021/08/18 00:08:54;;;;;;;3.70;1.70;;;15.80;92.80;;;;;;4970950;28;20046;-77
2021/08/18 00:11:22;;;;;;;3.40;1.80;;;15.80;92.80;;;;;;4972628;28;20062;-77
2021/08/18 00:13:49;;;;;;;4.47;2.60;;;15.80;92.90;;;;;;4953483;28;20043;-77
2021/08/18 00:16:17;;;;;;;5.88;2.35;;;15.80;92.90;;;;;;4982277;28;20042;-77
2021/08/18 00:18:47;;;;;;;5.07;2.42;;;15.80;92.90;;;;;;4972422;28;20077;-77
2021/08/18 00:21:15;;;;;;;5.40;2.25;;;15.80;93.00;;;;;;4974352;28;20142;-77
2021/08/18 00:23:42;;;;;;;4.78;2.60;;;15.80;93.00;;;;;;4985240;28;20043;-77
2021/08/18 00:26:09;;;;;;;4.82;2.67;;;15.80;93.00;;;;;;4973145;28;20043;-77
2021/08/18 00:28:36;;;;;;;4.88;2.25;;;15.80;93.30;;;;;;4975217;28;20081;-77
2021/08/18 00:31:03;;;;;;;3.40;1.85;;;15.80;93.00;;;;;;4985774;28;20157;-77
2021/08/18 00:33:31;;;;;;;5.78;2.92;;;15.80;93.00;;;;;;4986314;28;20034;-77
2021/08/18 00:35:58;;;;;;;4.80;2.65;;;15.80;93.00;;;;;;4969970;28;20089;-78
2021/08/18 00:38:25;;;;;;;3.97;2.30;;;15.80;93.00;;;;;;4973900;28;20122;-77
2021/08/18 00:40:52;;;;;;;5.00;2.70;;;15.80;93.00;;;;;;4970162;28;20042;-77
2021/08/18 00:43:19;;;;;;;3.17;1.70;;;15.80;93.00;;;;;;4984730;28;20058;-77
2021/08/18 00:45:50;;;;;;;4.80;2.75;;;15.80;93.10;;;;;;4970086;28;20043;-77
2021/08/18 00:48:18;;;;;;;5.38;1.85;;;15.80;93.00;;;;;;4971166;28;20114;-77
2021/08/18 00:50:45;;;;;;;5.20;2.90;;;15.80;93.00;;;;;;4985515;28;20043;-77
2021/08/18 00:53:14;;;;;;;4.57;2.40;;;15.80;93.10;;;;;;4986048;28;20039;-77
2021/08/18 00:55:41;;;;;;;5.18;2.90;;;15.80;93.10;;;;;;4986367;28;20075;-78
2021/08/18 00:58:09;;;;;;;4.55;2.38;;;15.80;93.10;;;;;;4970674;28;20094;-78
2021/08/18 01:00:37;;;;;;;5.45;2.65;;;15.80;93.10;;;;;;4986575;28;20447;-78
2021/08/18 01:03:04;;;;;;;5.32;3.10;;;15.70;93.20;;;;;;4988301;28;20082;-78
2021/08/18 01:05:31;;;;;;;5.57;2.67;;;15.80;93.20;;;;;;4989864;28;20141;-78
2021/08/18 01:08:01;;;;;;;4.95;2.10;;;15.80;93.20;;;;;;4986991;28;20172;-78
2021/08/18 01:10:33;;;;;;;4.93;2.55;;;15.80;93.20;;;;;;4968009;28;20081;-78
2021/08/18 01:13:01;;;;;;;4.72;2.55;;;15.70;93.20;;;;;;4971186;28;20062;-78
2021/08/18 01:15:30;;;;;;;4.25;2.22;;;15.70;93.30;;;;;;4952140;28;20822;-78
2021/08/18 01:18:00;;;;;;;3.85;1.98;;;15.70;93.20;;;;;;4971606;28;20511;-78
2021/08/18 01:20:31;;;;;;;6.10;2.20;;;15.70;93.20;;;;;;4966149;28;20039;-77
2021/08/18 01:23:07;;;;;;;3.35;1.45;;;15.70;93.20;;;;;;4970008;28;20132;-77
2021/08/18 01:25:39;;;;;;;3.58;1.40;;;15.70;93.20;;;;;;4952420;28;20049;-77
2021/08/18 01:28:07;;;;;;;4.38;1.90;;;15.80;93.20;;;;;;4976281;28;20104;-77
2021/08/18 01:30:35;;;;;;;4.75;1.30;;;15.80;93.20;;;;;;4969895;28;20491;-77
2021/08/18 01:33:12;;;;;;;3.72;1.48;;;15.80;93.20;;;;;;4970441;28;20047;-77
2021/08/18 01:35:48;;;;;;;4.80;1.80;;;15.80;93.20;;;;;;4969408;28;20035;-77
2021/08/18 01:38:17;;;;;;;6.13;2.15;;;15.80;93.20;;;;;;4967988;28;20051;-77
2021/08/18 01:40:47;;;;;;;4.32;2.08;;;15.70;93.30;;;;;;4980478;28;20489;-77
2021/08/18 01:43:14;;;;;;;2.97;1.30;;;15.70;93.20;;;;;;4969776;28;20039;-77
2021/08/18 01:45:44;;;;;;;5.10;1.73;;;15.80;93.30;;;;;;4975279;28;20118;-76
2021/08/18 01:48:15;;;;;;;3.05;1.23;;;15.70;93.50;;;;;;4969269;28;20038;-77
2021/08/18 01:50:47;;;;;;;3.33;1.30;;;15.80;93.20;;;;;;4968008;28;20051;-77
2021/08/18 01:53:25;;;;;;;4.30;1.50;;;15.80;93.20;;;;;;4968823;28;20074;-77
2021/08/18 01:55:52;;;;;;;2.97;1.25;;;15.80;93.20;;;;;;4987223;28;20050;-77
2021/08/18 01:58:20;;;;;;;3.53;1.50;;;15.80;93.50;;;;;;4969336;28;20133;-76
2021/08/18 02:00:47;;;;;;;3.92;1.60;;;15.80;93.50;;;;;;4985502;28;20051;-77
2021/08/18 02:03:14;;;;;;;7.20;2.22;;;15.80;93.20;;;;;;4983256;28;20058;-77
2021/08/18 02:05:41;;;;;;;3.30;1.70;;;15.80;93.30;;;;;;4967995;28;20070;-76
2021/08/18 02:08:08;;;;;;;3.78;1.88;;;15.80;93.30;;;;;;4973696;28;20047;-77
2021/08/18 02:10:35;;;;;;;5.38;1.90;;;15.80;93.20;;;;;;4972059;28;20479;-77
2021/08/18 02:13:02;;;;;;;4.38;1.63;;;15.80;93.20;;;;;;4971943;28;20081;-77
2021/08/18 02:15:31;;;;;;;4.18;1.85;;;15.90;93.20;;;;;;4984202;28;20043;-77
2021/08/18 02:18:00;;;;;;;2.10;1.00;;;15.90;93.20;;;;;;4990281;28;20402;-77
2021/08/18 02:20:30;;;;;;;2.47;1.10;;;15.90;93.20;;;;;;4968061;28;20039;-77
2021/08/18 02:22:57;;;;;;;4.15;1.80;;;15.90;93.20;;;;;;4969846;28;20138;-77
2021/08/18 02:25:24;;;;;;;5.68;1.98;;;15.90;93.30;;;;;;4968604;28;20046;-77
2021/08/18 02:27:51;;;;;;;3.83;1.55;;;15.80;93.20;;;;;;4984570;28;20034;-77
2021/08/18 02:30:22;;;;;;;3.10;1.40;;;15.80;93.20;;;;;;4954725;28;20458;-78
2021/08/18 02:32:49;;;;;;;6.28;1.52;;;15.80;93.20;;;;;;4984865;28;20066;-78
2021/08/18 02:35:17;;;;;;;3.15;1.55;;;15.80;93.30;;;;;;4970407;28;20480;-78
2021/08/18 02:37:45;;;;;;;4.65;2.08;;;15.80;93.30;;;;;;4968548;28;20066;-79
2021/08/18 02:40:16;;;;;;;3.65;1.75;;;15.80;93.30;;;;;;4971636;28;20059;-78
2021/08/18 02:42:44;;;;;;;6.43;2.55;;;15.80;93.30;;;;;;4995479;28;20093;-78
2021/08/18 02:45:11;;;;;;;4.65;1.92;;;15.70;93.40;;;;;;4973679;28;20043;-78
2021/08/18 02:47:38;;;;;;;3.55;1.88;;;15.70;93.30;;;;;;4993710;28;20042;-77
2021/08/18 02:50:07;;;;;;;4.35;1.75;;;15.70;93.30;;;;;;4986713;28;20070;-77
2021/08/18 02:52:34;;;;;;;2.10;0.90;;;15.70;93.30;;;;;;4955198;28;20055;-76
2021/08/18 02:55:01;;;;;;;2.35;1.00;;;15.70;93.30;;;;;;4955230;28;20041;-77
2021/08/18 02:57:28;;;;;;;2.90;1.15;;;15.70;93.30;;;;;;4956988;28;20035;-77
2021/08/18 02:59:56;;;;;;;2.58;0.80;;;15.70;93.30;;;;;;4992249;28;20077;-77
2021/08/18 03:02:24;;;;;;;2.38;0.85;;;15.70;93.30;;;;;;4959198;28;20053;-77
2021/08/18 03:04:52;;;;;;;2.97;0.82;;;15.70;93.30;;;;;;4974445;28;20061;-77
2021/08/18 03:07:19;;;;;;;2.63;1.00;;;15.70;93.30;;;;;;4972649;28;20098;-77
2021/08/18 03:09:46;;;;;;;2.28;0.70;;;15.70;93.30;;;;;;4980520;28;20470;-77
2021/08/18 03:12:13;;;;;;;3.55;1.23;;;15.70;93.30;;;;;;4990540;28;20553;-77
2021/08/18 03:14:40;;;;;;;2.25;0.98;;;15.70;93.30;;;;;;4972076;28;20782;-77
2021/08/18 03:17:07;;;;;;;1.92;0.70;;;15.70;93.30;;;;;;4955628;28;20045;-77
2021/08/18 03:19:34;;;;;;;2.22;0.85;;;15.70;93.30;;;;;;4989180;28;20085;-76
2021/08/18 03:22:01;;;;;;;2.20;0.82;;;15.70;93.30;;;;;;4988503;28;20093;-76
2021/08/18 03:24:28;;;;;;;3.47;1.30;;;15.70;93.30;;;;;;4972155;28;20051;-77
2021/08/18 03:26:55;;;;;;;2.60;1.20;;;15.70;93.30;;;;;;4971352;28;20078;-78
2021/08/18 03:29:22;;;;;;;2.63;1.13;;;15.70;93.30;;;;;;4988415;28;20211;-78
2021/08/18 03:31:49;;;;;;;3.28;1.58;;;15.70;93.30;;;;;;4972322;28;20050;-78
2021/08/18 03:34:16;;;;;;;2.42;1.05;;;15.70;93.30;;;;;;4962067;28;20384;-78
2021/08/18 03:36:43;;;;;;;2.33;0.82;;;15.70;93.40;;;;;;4974754;28;20110;-78
2021/08/18 03:39:10;;;;;;;2.10;1.00;;;15.70;93.30;;;;;;4988333;28;20038;-78
2021/08/18 03:41:36;;;;;;;2.95;1.00;;;15.70;93.30;;;;;;4972807;28;20094;-79
2021/08/18 03:44:04;;;;;;;1.92;0.90;;;15.70;93.30;;;;;;4976749;28;20035;-78
2021/08/18 03:46:31;;;;;;;2.10;0.80;;;15.70;93.30;;;;;;4973497;28;20118;-78
2021/08/18 03:48:58;;;;;;;1.92;0.80;;;15.70;93.30;;;;;;4967780;28;20046;-77
2021/08/18 03:51:25;;;;;;;1.80;0.73;;;15.70;93.30;;;;;;4970626;28;20669;-79
2021/08/18 03:53:52;;;;;;;2.67;0.93;;;15.70;93.30;;;;;;4971568;28;20049;-78
2021/08/18 03:56:18;;;;;;;2.72;0.98;;;15.70;93.30;;;;;;4972538;28;20149;-78
2021/08/18 03:58:45;;;;;;;2.40;0.85;;;15.70;93.30;;;;;;4989256;28;20499;-78
2021/08/18 04:01:13;;;;;;;2.92;0.80;;;15.60;93.30;;;;;;4973505;28;20066;-78
2021/08/18 04:03:40;;;;;;;3.00;0.60;;;15.60;93.30;;;;;;4987284;28;20064;-78
2021/08/18 04:06:07;;;;;;;2.25;0.80;;;15.70;93.30;;;;;;4974808;28;20105;-78
2021/08/18 04:08:34;;;;;;;2.90;0.82;;;15.70;93.30;;;;;;4972915;28;20078;-78
2021/08/18 04:11:05;;;;;;;2.22;0.85;;;15.70;93.30;;;;;;4985924;28;20070;-76
2021/08/18 04:13:32;;;;;;;1.63;0.70;;;15.60;93.30;;;;;;4968523;28;20388;-77
2021/08/18 04:15:59;;;;;;;2.67;0.73;;;15.70;93.30;;;;;;4956065;28;20409;-77
2021/08/18 04:18:26;;;;;;;1.63;0.52;;;15.70;93.30;;;;;;4974773;28;20129;-77
2021/08/18 04:20:53;;;;;;;2.13;0.80;;;15.70;93.30;;;;;;4973832;28;20073;-76
2021/08/18 04:23:20;;;;;;;1.83;0.50;;;15.70;93.30;;;;;;4969496;28;20043;-77
2021/08/18 04:25:47;;;;;;;0.82;0.40;;;15.70;93.30;;;;;;4986357;28;20848;-77
2021/08/18 04:28:14;;;;;;;2.13;0.75;;;15.70;93.30;;;;;;4982487;28;20070;-77
2021/08/18 04:30:41;;;;;;;1.83;0.70;;;15.60;93.20;;;;;;4969085;28;20051;-77
2021/08/18 04:33:08;;;;;;;1.58;0.57;;;15.70;93.30;;;;;;4983884;28;20097;-77
2021/08/18 04:35:35;;;;;;;2.53;0.55;;;15.70;93.60;;;;;;4966863;28;20126;-77
2021/08/18 04:38:03;;;;;;;2.28;0.60;;;15.70;93.30;;;;;;4980811;28;20073;-77
2021/08/18 04:40:30;;;;;;;3.17;0.68;;;15.60;93.30;;;;;;4981128;28;20061;-78
2021/08/18 04:42:57;;;;;;;1.92;0.90;;;15.60;93.30;;;;;;4964028;28;20046;-78
2021/08/18 04:45:25;;;;;;;2.00;0.70;;;15.70;93.30;;;;;;4974939;28;20125;-78
2021/08/18 04:47:52;;;;;;;3.10;0.68;;;15.70;93.30;;;;;;4985490;28;20046;-78
2021/08/18 04:50:19;;;;;;;2.13;0.73;;;15.60;93.20;;;;;;4993992;28;20066;-78
2021/08/18 04:52:46;;;;;;;3.25;1.48;;;15.70;93.30;;;;;;4970003;28;20053;-78
2021/08/18 04:55:15;;;;;;;2.80;0.95;;;15.70;93.30;;;;;;4988274;28;20077;-76
2021/08/18 04:57:42;;;;;;;2.70;0.63;;;15.70;93.30;;;;;;4969981;28;20042;-77
2021/08/18 05:00:10;;;;;;;2.10;1.00;;;15.70;93.30;;;;;;4985480;28;20992;-77
2021/08/18 05:02:37;;;;;;;1.63;0.80;;;15.70;93.30;;;;;;4971795;28;20034;-77
2021/08/18 05:05:05;;;;;;;3.35;0.90;;;15.70;93.30;;;;;;4953361;28;20582;-77
2021/08/18 05:07:32;;;;;;;2.35;0.93;;;15.70;93.20;;;;;;4971267;28;20357;-77
2021/08/18 05:09:59;;;;;;;3.70;0.98;;;15.70;93.20;;;;;;4985774;28;20082;-77
2021/08/18 05:12:26;;;;;;;4.32;1.08;;;15.80;93.20;;;;;;4970421;28;20043;-77
2021/08/18 05:14:53;;;;;;;2.10;0.82;;;15.80;93.20;;;;;;4969260;28;20075;-76
2021/08/18 05:17:20;;;;;;;3.08;0.88;;;15.80;93.20;;;;;;4970781;28;20039;-77
2021/08/18 05:19:47;;;;;;;3.38;1.13;;;15.90;93.20;;;;;;4984758;28;20158;-77
2021/08/18 05:22:14;;;;;;;1.75;0.80;;;15.90;93.10;;;;;;4969338;28;20181;-77
2021/08/18 05:24:41;;;;;;;3.85;1.20;;;16.00;93.10;;;;;;4969494;28;20042;-76
2021/08/18 05:27:08;;;;;;;2.17;0.93;;;16.00;93.10;;;;;;4985730;28;20049;-77
2021/08/18 05:29:35;;;;;;;1.83;0.57;;;16.00;93.00;;;;;;4966357;28;20047;-78
2021/08/18 05:32:02;;;;;;;1.67;0.70;;;16.00;93.00;;;;;;4969467;28;20049;-78
2021/08/18 05:34:29;;;;;;;2.25;0.90;;;16.10;93.00;;;;;;4972611;28;20077;-78
2021/08/18 05:36:56;;;;;;;2.35;1.20;;;16.10;93.00;;;;;;4972591;28;21733;-78
2021/08/18 05:39:23;;;;;;;2.08;1.00;;;16.10;93.00;;;;;;4969373;28;20042;-78
2021/08/18 05:41:50;;;;;;;2.13;1.00;;;16.10;93.00;;;;;;4969958;28;20070;-78
2021/08/18 05:44:17;;;;;;;1.73;0.70;;;16.10;93.00;;;;;;4968633;28;20077;-78
2021/08/18 05:46:44;;;;;;;3.67;0.98;;;16.10;93.00;;;;;;4986271;28;20055;-78
2021/08/18 05:49:19;;;;;;;2.15;0.88;;;16.20;93.00;;;;;;4982018;28;20417;-78
2021/08/18 05:51:48;;;;;;;2.40;0.90;;;16.20;93.00;;;;;;4968506;28;20070;-77
2021/08/18 05:54:17;;;;;;;2.05;0.82;;;16.20;92.90;;;;;;4966452;28;20499;-77
2021/08/18 05:56:45;;;;;;;1.25;0.70;;;16.20;92.90;;;;;;4986763;28;20510;-76
2021/08/18 05:59:12;;;;;;;2.45;0.93;;;16.20;92.90;;;;;;4971481;28;20348;-76
2021/08/18 06:01:39;;;;;;;3.38;1.67;;;16.30;92.90;;;;;;4983723;28;20046;-75
2021/08/18 06:04:06;;;;;;;3.47;1.10;;;16.30;92.90;;;;;;4970400;28;20452;-76
2021/08/18 06:06:33;;;;;;;5.05;1.40;;;16.30;92.90;;;;;;4970061;28;20074;-76
2021/08/18 06:09:00;;;;;;;2.83;1.17;;;16.30;92.80;;;;;;4968986;28;20047;-76
2021/08/18 06:11:27;;;;;;;3.60;1.15;;;16.40;92.80;;;;;;4969527;28;20150;-76
2021/08/18 06:13:54;;;;;;;1.75;0.90;;;16.40;92.80;;;;;;4974519;28;20122;-78
2021/08/18 06:16:21;;;;;;;2.88;1.02;;;16.40;92.80;;;;;;4976381;28;20042;-78
2021/08/18 06:18:49;;;;;;;2.63;0.88;;;16.50;92.80;;;;;;4975403;28;20507;-77
2021/08/18 06:21:16;;;;;;;1.88;0.90;;;16.50;92.70;;;;;;4976643;28;20145;-77
2021/08/18 06:23:47;;;;;;;1.73;0.70;;;16.60;92.70;;;;;;4967542;28;20118;-78
2021/08/18 06:26:14;;;;;;;4.53;0.98;;;16.60;92.60;;;;;;4977095;28;20053;-78
2021/08/18 06:28:41;;;;;;;2.72;0.90;;;16.70;92.60;;;;;;4976889;28;20162;-78
2021/08/18 06:31:09;;;;;;;2.42;1.10;;;16.70;92.60;;;;;;4975870;28;20050;-78
2021/08/18 06:33:36;;;;;;;2.97;1.30;;;16.80;92.60;;;;;;4943887;28;20050;-78
2021/08/18 06:36:03;;;;;;;2.90;1.40;;;16.70;92.50;;;;;;4961242;28;20074;-78
2021/08/18 06:38:30;;;;;;;4.10;1.10;;;16.70;92.50;;;;;;4975898;28;20130;-77
2021/08/18 06:40:57;;;;;;;3.00;1.00;;;16.80;92.80;;;;;;4976752;28;20219;-77
2021/08/18 06:43:25;;;;;;;3.17;1.42;;;16.80;92.40;;;;;;4975652;28;20141;-77
2021/08/18 06:45:52;;;;;;;1.88;0.80;;;16.80;92.40;;;;;;4975456;28;20042;-78
2021/08/18 06:48:19;;;;;;;2.80;1.08;;;16.90;92.40;;;;;;4957301;28;20063;-77
2021/08/18 06:50:46;;;;;;;2.90;1.50;;;16.90;92.40;;;;;;4976522;28;20117;-78
2021/08/18 06:53:13;;;;;;;1.65;0.63;;;16.90;92.30;;;;;;4991168;28;20043;-78
2021/08/18 06:55:40;;;;;;;2.83;1.05;;;16.90;92.30;;;;;;4979871;28;20499;-78
2021/08/18 06:58:07;;;;;;;2.15;0.80;;;17.00;92.30;;;;;;4959358;28;20451;-78
2021/08/18 07:00:34;;;;;;;1.77;0.70;;;17.00;92.20;;;;;;4988611;28;20055;-78
2021/08/18 07:03:01;;;;;;;3.08;0.85;;;17.00;92.20;;;;;;4991203;28;20043;-78
2021/08/18 07:05:32;;;;;;;2.05;0.80;;;17.00;92.20;;;;;;4989504;28;20074;-77
2021/08/18 07:07:59;;;;;;;1.33;0.63;;;17.10;92.20;;;;;;4991405;28;20055;-76
2021/08/18 07:10:26;;;;;;;2.03;0.70;;;17.20;92.10;;;;;;4975087;28;20042;-75
2021/08/18 07:12:54;;;;;;;1.13;0.50;;;17.20;92.00;;;;;;4973767;28;20047;-75
2021/08/18 07:15:22;;;;;;;1.45;0.70;;;17.30;92.00;;;;;;4972027;28;20042;-75
2021/08/18 07:17:49;;;;;;;0.93;0.40;;;17.30;92.00;;;;;;4972649;28;20054;-75
2021/08/18 07:20:16;;;;;;;1.67;0.60;;;17.40;92.00;;;;;;4974516;28;20118;-75
2021/08/18 07:22:43;;;;;;;1.58;0.65;;;17.40;91.90;;;;;;4979680;28;20077;-75
2021/08/18 07:25:11;;;;;;;2.40;0.82;;;17.50;91.90;;;;;;4974617;28;20086;-76
2021/08/18 07:27:38;;;;;;;1.85;0.80;;;17.50;91.80;;;;;;4970270;28;20146;-76
2021/08/18 07:30:05;;;;;;;1.77;0.82;;;17.50;91.80;;;;;;4964089;28;20038;-76
2021/08/18 07:32:33;;;;;;;1.98;0.80;;;17.50;91.70;;;;;;4990553;28;20039;-78
2021/08/18 07:35:00;;;;;;;1.83;0.70;;;17.50;91.70;;;;;;4974663;28;20043;-81
2021/08/18 07:37:29;;;;;;;1.67;0.75;;;17.40;91.70;;;;;;4974771;28;20047;-80
2021/08/18 07:39:57;;;;;;;1.67;0.80;;;17.40;91.70;;;;;;4959062;28;20077;-80
2021/08/18 07:42:24;;;;;;;2.03;0.80;;;17.50;91.70;;;;;;4974053;28;20096;-80
2021/08/18 07:44:51;;;;;;;2.17;0.77;;;17.50;91.70;;;;;;4975496;28;20491;-80
2021/08/18 07:47:19;;;;;;;1.80;0.85;;;17.50;91.60;;;;;;4974098;28;20046;-80
2021/08/18 07:49:46;;;;;;;1.98;0.60;;;17.50;91.50;;;;;;4975163;28;20042;-80
2021/08/18 07:52:13;;;;;;;1.70;0.60;;;17.50;91.50;;;;;;4958356;28;20046;-80
2021/08/18 07:54:40;;;;;;;2.58;0.70;;;17.50;91.50;;;;;;4975090;28;20069;-80
2021/08/18 07:57:07;;;;;;;1.55;0.60;;;17.50;91.50;;;;;;4969859;28;20042;-82
2021/08/18 07:59:34;;;;;;;2.55;0.60;;;17.60;91.50;;;;;;4939177;28;20083;-82
2021/08/18 08:02:01;;;;;;;0.85;0.40;;;17.60;91.40;;;;;;4974126;28;20049;-82
2021/08/18 08:04:28;;;;;;;1.67;0.82;;;17.70;91.40;;;;;;4958094;28;20058;-81
2021/08/18 08:06:55;;;;;;;1.60;0.50;;;17.70;91.30;;;;;;4983712;28;20039;-80
2021/08/18 08:09:22;;;;;;;1.80;0.52;;;17.70;91.30;;;;;;4967462;28;20590;-81
2021/08/18 08:11:49;;;;;;;1.52;0.70;;;17.80;91.20;;;;;;4989744;28;20503;-80
2021/08/18 08:14:56;;;;;;;1.75;0.80;;;17.80;91.10;;;;;;4957828;28;20082;-80
2021/08/18 08:17:26;;;;;;;2.30;0.80;;;17.80;91.00;;;;;;4964822;28;20049;-77
2021/08/18 08:19:53;;;;;;;2.97;0.77;;;17.80;91.10;;;;;;4988805;28;20046;-76
2021/08/18 08:22:20;;;;;;;1.30;0.68;;;17.70;91.10;;;;;;4982483;28;20059;-83
2021/08/18 08:24:47;;;;;;;1.55;0.50;;;17.80;91.10;;;;;;4958190;28;20039;-81
2021/08/18 08:27:37;;;;;;;1.30;0.60;;;17.80;91.10;;;;;;4972565;28;20039;-81
2021/08/18 08:30:51;;;;;;;2.88;0.70;;;17.90;91.00;;;;;;4967467;28;20530;-81
2021/08/18 08:34:09;;;;;;;2.53;0.70;;;18.00;90.90;;;;;;4969639;28;20078;-82
2021/08/18 08:36:36;;;;;;;1.80;0.77;;;18.10;90.90;;;;;;4971627;28;20039;-82
2021/08/18 08:39:04;;;;;;;1.30;0.60;;;18.20;90.90;;;;;;4976627;28;20050;-81
2021/08/18 08:41:35;;;;;;;1.75;0.60;;;18.30;90.70;;;;;;4974562;28;20443;-81
2021/08/18 08:44:03;;;;;;;0.80;0.50;;;18.50;90.60;;;;;;4963749;28;20039;-80
2021/08/18 08:46:32;;;;;;;3.30;1.10;;;18.60;90.60;;;;;;4964740;28;20047;-80
2021/08/18 08:49:00;;;;;;;1.33;0.63;;;18.70;90.40;;;;;;4978133;28;20046;-79
2021/08/18 08:51:33;;;;;;;1.40;0.63;;;18.70;90.40;;;;;;4985721;28;20051;-79
2021/08/18 08:54:09;;;;;;;1.98;0.80;;;18.80;90.30;;;;;;4972766;28;20038;-79
2021/08/18 08:56:42;;;;;;;2.85;1.05;;;18.80;90.30;;;;;;4971005;28;20054;-78
2021/08/18 08:59:10;;;;;;;2.25;1.15;;;18.80;90.20;;;;;;4973068;28;20455;-77
2021/08/18 09:02:22;;;;;;;3.20;1.20;;;18.80;90.20;;;;;;4974267;28;20035;-78
2021/08/18 09:04:50;;;;;;;3.15;1.38;;;18.90;90.10;;;;;;4975746;28;20514;-78
2021/08/18 09:07:22;;;;;;;1.92;0.85;;;18.90;90.10;;;;;;4972358;28;20086;-76
2021/08/18 09:09:57;;;;;;;3.95;1.63;;;19.00;90.10;;;;;;4972388;28;20057;-76
2021/08/18 09:12:39;;;;;;;3.40;1.15;;;19.20;90.10;;;;;;4988270;28;20166;-76
2021/08/18 09:15:26;;;;;;;3.45;1.58;;;19.30;90.00;;;;;;4982378;28;20459;-76
2021/08/18 09:17:53;;;;;;;2.63;1.20;;;19.30;89.70;;;;;;4971586;28;20474;-76
2021/08/18 09:20:22;;;;;;;2.17;1.20;;;19.40;89.90;;;;;;4994513;28;20505;-77
2021/08/18 09:23:02;;;;;;;2.55;0.80;;;19.50;89.80;;;;;;4972104;28;20046;-77
2021/08/18 09:25:39;;;;;;;3.95;1.67;;;19.50;89.60;;;;;;4976925;28;20102;-77
2021/08/18 09:28:06;;;;;;;2.80;1.30;;;19.40;89.80;;;;;;4968021;28;20078;-76
2021/08/18 09:30:34;;;;;;;2.75;1.55;;;19.50;89.80;;;;;;4973947;28;20129;-77
2021/08/18 09:33:13;;;;;;;2.65;1.63;;;19.50;89.70;;;;;;4973060;28;20050;-79
2021/08/18 09:35:42;;;;;;;3.42;1.65;;;19.60;89.40;;;;;;4973996;28;20093;-79
2021/08/18 09:38:15;;;;;;;2.88;1.60;;;19.60;89.90;;;;;;4978838;28;20185;-79
2021/08/18 09:40:47;;;;;;;2.25;1.60;;;19.70;89.20;;;;;;4974043;28;20109;-79
2021/08/18 09:43:27;;;;;;;3.38;1.60;;;19.80;89.10;;;;;;4988593;28;20142;-76
2021/08/18 09:46:02;;;;;;;3.08;1.73;;;19.90;89.40;;;;;;4987103;28;20089;-79
2021/08/18 09:48:31;;;;;;;3.95;1.80;;;19.90;88.70;;;;;;4974403;28;20067;-79
2021/08/18 09:51:00;;;;;;;2.40;1.60;;;20.00;88.60;;;;;;4977729;28;20057;-80
2021/08/18 09:53:39;;;;;;;3.83;1.70;;;20.00;88.60;;;;;;4980626;28;20487;-80
2021/08/18 09:56:12;;;;;;;3.78;2.22;;;20.10;88.40;;;;;;4976529;28;20491;-79
2021/08/18 09:58:41;;;;;;;4.97;2.47;;;20.10;88.30;;;;;;4977282;28;20078;-79
2021/08/18 10:01:14;;;;;;;3.75;2.72;;;20.10;88.10;;;;;;4978305;28;20058;-77
2021/08/18 10:03:43;;;;;;;4.70;2.63;;;20.10;88.10;;;;;;4989677;28;20055;-76
2021/08/18 10:06:12;;;;;;;4.82;3.17;;;20.20;87.90;;;;;;4957405;29;20043;-76
2021/08/18 10:08:40;;;;;;;3.90;2.88;;;20.20;87.90;;;;;;4944499;28;20435;-76
2021/08/18 10:11:11;;;;;;;4.93;3.80;;;20.30;87.80;;;;;;4946970;28;20047;-77
2021/08/18 10:13:38;;;;;;;5.72;3.65;;;20.30;87.30;;;;;;4957263;28;20484;-76
2021/08/18 10:16:05;;;;;;;4.07;3.60;;;20.30;87.10;;;;;;4955969;28;20078;-76
2021/08/18 10:18:41;;;;;;;5.93;4.70;;;20.30;87.30;;;;;;4950831;28;20039;-79
2021/08/18 10:21:22;;;;;;;5.72;4.95;;;20.30;87.00;;;;;;4953856;28;20074;-80
2021/08/18 10:23:58;;;;;;;5.90;4.90;;;20.20;87.10;;;;;;4959312;28;20043;-81
2021/08/18 10:26:34;;;;;;;6.30;5.28;;;20.00;87.50;;;;;;4924975;29;20070;-82
2021/08/18 10:29:09;;;;;;;7.18;5.25;;;19.90;87.70;;;;;;4956806;28;20579;-79
2021/08/18 10:34:22;;;;;;;7.68;5.10;;;19.60;88.00;;;;;;4979887;28;20137;-83
2021/08/18 10:36:53;;;;;;;7.10;5.50;;;19.50;88.30;;;;;;4941573;29;20530;-82
2021/08/18 10:39:26;;;;;;;6.30;4.72;;;19.50;88.40;;;;;;4955734;28;20081;-81
2021/08/18 10:42:00;;;;;;;7.22;5.03;;;19.40;88.40;;;;;;4956024;29;20050;-81
2021/08/18 10:44:42;;;;;;;7.22;5.22;;;19.50;88.40;;;;;;4939722;29;20495;-80
2021/08/18 10:47:34;;;;;;;4.97;3.95;;;19.60;88.10;;;;;;4956164;28;20063;-81
2021/08/18 10:50:13;;;;;;;5.78;3.95;;;19.70;87.90;;;;;;4957806;28;20114;-80
2021/08/18 10:52:42;;;;;;;4.65;3.83;;;19.80;87.80;;;;;;4971527;28;20126;-79
2021/08/18 10:55:12;;;;;;;4.15;3.20;;;19.80;87.60;;;;;;4940247;29;20047;-79
2021/08/18 10:57:50;;;;;;;4.97;3.67;;;19.90;87.60;;;;;;4946857;28;20051;-79
2021/08/18 11:00:19;;;;;;;5.60;4.03;;;19.90;87.20;;;;;;4942155;28;20050;-80
2021/08/18 11:02:54;;;;;;;4.45;3.30;;;19.90;87.20;;;;;;4962619;28;20046;-81
2021/08/18 11:05:35;;;;;;;5.20;3.60;;;19.80;87.10;;;;;;4958027;28;20569;-80
2021/08/18 11:08:02;;;;;;;5.45;3.78;;;19.80;87.20;;;;;;4964293;28;20407;-79
2021/08/18 11:10:35;;;;;;;5.57;4.18;;;19.60;87.30;;;;;;4978760;28;20783;-77
2021/08/18 11:13:05;;;;;;;5.50;4.10;;;19.40;87.20;;;;;;4972247;28;20081;-76
2021/08/18 11:15:32;;;;;;;5.75;3.95;;;19.10;88.30;;;;;;4980621;28;20035;-76
2021/08/18 11:18:03;;;;;;;5.95;4.13;;;18.80;88.30;;;;;;4974918;28;20043;-76
2021/08/18 11:20:30;;;;;;;5.75;3.63;;;18.60;88.80;;;;;;4973490;28;20070;-75
2021/08/18 11:23:10;;;;;;;4.57;3.35;;;18.50;89.30;;;;;;4973974;28;20082;-77
2021/08/18 11:25:44;;;;;;;6.15;3.70;;;18.50;89.50;;;;;;4973963;28;20105;-76
2021/08/18 11:28:22;;;;;;;5.40;3.15;;;18.70;89.40;;;;;;4972991;28;20039;-76
2021/08/18 11:31:15;;;;;;;5.00;2.63;;;18.80;89.40;;;;;;4974850;28;20039;-76
2021/08/18 11:33:42;;;;;;;4.82;3.25;;;19.10;88.60;;;;;;4937192;28;20062;-77
2021/08/18 11:36:15;;;;;;;4.25;2.95;;;19.30;88.30;;;;;;4941469;28;20047;-76
2021/08/18 11:38:42;;;;;;;3.95;2.60;;;19.60;87.90;;;;;;4963076;28;20105;-76
2021/08/18 11:41:09;;;;;;;3.88;2.25;;;19.70;87.60;;;;;;4933770;28;20073;-76
2021/08/18 11:43:47;;;;;;;3.25;1.67;;;20.00;87.30;;;;;;4966970;28;20126;-76
2021/08/18 11:46:14;;;;;;;5.93;2.60;;;20.30;87.00;;;;;;4955758;28;20035;-80
2021/08/18 11:48:42;;;;;;;3.30;2.15;;;20.40;86.40;;;;;;4975788;28;20118;-79
2021/08/18 11:51:10;;;;;;;4.60;3.00;;;20.40;86.00;;;;;;4974911;28;20062;-79
2021/08/18 11:53:38;;;;;;;2.78;1.52;;;20.40;85.50;;;;;;4969212;28;20050;-80
2021/08/18 11:56:06;;;;;;;3.13;1.90;;;20.40;85.60;;;;;;4981767;28;20061;-79
2021/08/18 11:58:35;;;;;;;2.70;1.33;;;20.30;85.40;;;;;;4971570;28;20117;-80
2021/08/18 12:01:06;;;;;;;2.10;1.17;;;20.20;85.80;;;;;;4974270;28;20142;-80
2021/08/18 12:03:34;;;;;;;3.40;2.00;;;20.10;86.10;;;;;;4971564;28;20051;-81
2021/08/18 12:06:06;;;;;;;3.20;1.38;;;20.00;86.20;;;;;;4943931;28;20472;-81
2021/08/18 12:08:35;;;;;;;2.83;1.50;;;20.00;86.50;;;;;;4971133;28;20066;-80
2021/08/18 12:11:03;;;;;;;5.70;3.63;;;19.90;86.70;;;;;;4974063;28;20043;-81
2021/08/18 12:13:47;;;;;;;4.70;3.33;;;19.60;86.60;;;;;;4984117;28;20038;-82
2021/08/18 12:16:29;;;;;;;7.85;4.70;;;19.20;87.70;;;;;;4947161;28;20134;-81
2021/08/18 12:19:25;;;;;;;6.32;4.00;;;18.90;88.50;;;;;;4972165;28;20501;-80
2021/08/18 12:22:04;;;;;;;6.28;4.38;;;18.80;89.00;;;;;;4951510;28;20141;-79
2021/08/18 12:24:32;;;;;;;6.38;4.03;;;18.80;89.20;;;;;;4972939;28;20110;-82
2021/08/18 12:27:05;;;;;;;5.68;3.78;;;19.00;89.20;;;;;;4955690;28;20174;-82
2021/08/18 12:29:34;;;;;;;6.57;4.60;;;19.20;88.90;;;;;;4972286;28;20035;-82
2021/08/18 12:32:22;;;;;;;7.38;5.13;;;19.40;89.10;;;;;;4954752;28;20099;-76
2021/08/18 12:35:06;;;;;;;7.07;5.28;;;19.50;88.30;;;;;;4954336;28;20097;-77
2021/08/18 12:37:42;;;;;;;5.53;3.80;;;19.70;88.20;;;;;;4971906;28;20083;-77
2021/08/18 12:40:27;;;;;;;9.15;6.10;;;19.90;88.30;;;;;;4966073;28;20483;-76
2021/08/18 12:42:56;;;;;;;9.90;6.32;;;20.10;88.00;;;;;;4971590;28;20043;-78
2021/08/18 12:45:35;;;;;;;8.45;5.90;;;20.10;88.40;;;;;;4971572;28;20463;-76
2021/08/18 12:48:02;;;;;;;6.80;5.03;;;20.00;88.90;;;;;;4954275;28;20599;-77
2021/08/18 12:50:35;;;;;;;8.07;5.70;;;20.00;89.40;;;;;;4954638;28;20089;-77
2021/08/18 12:53:04;;;;;;;10.30;6.68;;;19.90;89.60;;;;;;4969531;28;20166;-76
2021/08/18 12:55:33;;;;;;;9.95;6.50;;;19.80;90.00;;;;;;4969098;28;20039;-76
2021/08/18 12:58:01;;;;;;;6.72;5.22;;;19.60;90.10;;;;;;4970438;28;20042;-75
2021/08/18 13:00:29;;;;;;;8.32;6.32;;;19.50;90.30;;;;;;4969503;28;20037;-77
2021/08/18 13:02:57;;;;;;;6.38;4.80;;;19.40;90.40;;;;;;4970534;28;20047;-76
2021/08/18 13:05:25;;;;;;;6.88;5.70;;;19.30;90.60;;;;;;4937135;28;20101;-75